Nearby METAR Reports

   
KFPR - Fort Pierce, FL
Updated: Dec 14 2017 6:53 pm
Clear  
Clear  
   Wind: South 5.8 mph
Wind: South 5.8 mph
Temperature: 62.6°F
Dew Point: 53.6°F
Humidity: 73%
Barometer: 30.1 inHg
Clouds: Clear
Visibility: 10 mi
Cloud details: Clear
KFPR 142353Z 18005KT 10SM CLR 17/12 A3006 RMK AO2 SLP178 T01720117 10228 20172 53010
KSUA - Stuart, FL
Updated: Dec 14 2017 6:47 pm
Clear  
Clear  
   Wind: Calm
Wind: Calm
Temperature: 66.2°F
Dew Point: 46.4°F
Humidity: 49%
Barometer: 30.1 inHg
Clouds: Clear
Visibility: 7 mi
Cloud details: Clear
KSUA 142347Z 00000KT 7SM SKC 19/08 A3008
KOBE - Okeechobee, FL
Updated: Dec 14 2017 7:15 pm
Clear  
Clear  
   Wind: South 4.6 mph
Wind: South 4.6 mph
Temperature: 62.6°F
Dew Point: 51.8°F
Humidity: 68%
Barometer: 30.1 inHg
Clouds: Clear
Visibility: 10 mi
Cloud details: Clear
KOBE 150015Z AUTO 18004KT 10SM CLR 17/11 A3006 RMK AO2

Script developed by  Saratoga-weather.org Adapted for the template by  Weerstation Leuven

You find our weather info also at:

WeatherCloud

Weather Underground

Southeastern Weather Network

Citizen Weather Observer Program (CWOP)

HAMweather, WeatherForYou, PWS Weather

Anything Weather